createdAt,value
2022-11-12T00:00:46.839Z,98635.38
2022-11-12T00:03:13.283Z,98627.38
2022-11-12T00:05:39.753Z,98625.38
2022-11-12T00:08:06.249Z,98638.97
2022-11-12T00:10:32.860Z,98636.69
2022-11-12T00:12:59.598Z,98631.47
2022-11-12T00:15:26.445Z,98644.41
2022-11-12T00:17:53.031Z,98635.75
2022-11-12T00:20:19.508Z,98645.97
2022-11-12T00:22:45.967Z,98641.25
2022-11-12T00:25:12.363Z,98638.66
2022-11-12T00:27:38.920Z,98641.69
2022-11-12T00:30:05.672Z,98642.09
2022-11-12T00:32:32.085Z,98637.91
2022-11-12T00:35:01.382Z,98638.13
2022-11-12T00:37:29.142Z,98644.19
2022-11-12T00:39:55.525Z,98651.28
2022-11-12T00:42:21.948Z,98644.50
2022-11-12T00:44:49.948Z,98654.94
2022-11-12T00:47:16.590Z,98649.63
2022-11-12T00:49:43.126Z,98650.25
2022-11-12T00:52:09.493Z,98660.47
2022-11-12T00:54:35.931Z,98664.44
2022-11-12T00:57:02.376Z,98658.16
2022-11-12T00:59:28.792Z,98655.75
2022-11-12T01:01:55.276Z,98665.66
2022-11-12T01:04:21.689Z,98659.59
2022-11-12T01:06:48.126Z,98664.81
2022-11-12T01:09:14.582Z,98661.50
2022-11-12T01:11:41.276Z,98662.75
2022-11-12T01:14:08.175Z,98668.50
2022-11-12T01:16:35.467Z,98670.91
2022-11-12T01:19:02.293Z,98665.69
2022-11-12T01:21:29.422Z,98664.88
2022-11-12T01:23:57.261Z,98662.34
2022-11-12T01:26:23.737Z,98671.75
2022-11-12T01:28:50.318Z,98675.97
2022-11-12T01:31:24.007Z,98677.53
2022-11-12T01:33:52.983Z,98666.00
2022-11-12T01:36:19.452Z,98671.22
2022-11-12T01:38:46.190Z,98669.56
2022-11-12T01:41:14.052Z,98667.88
2022-11-12T01:43:40.471Z,98665.91
2022-11-12T01:46:20.689Z,98665.63
2022-11-12T01:48:48.571Z,98662.72
2022-11-12T01:51:14.955Z,98653.75
2022-11-12T01:53:43.306Z,98665.63
2022-11-12T01:56:09.697Z,98660.22
2022-11-12T01:58:36.107Z,98669.41
2022-11-12T02:01:02.549Z,98666.66
2022-11-12T02:03:28.994Z,98666.84
2022-11-12T02:05:58.565Z,98669.56
2022-11-12T02:08:25.298Z,98670.59
2022-11-12T02:10:51.891Z,98662.56
2022-11-12T02:13:37.084Z,98669.19
2022-11-12T02:16:04.441Z,98667.09
2022-11-12T02:18:30.870Z,98663.66
2022-11-12T02:20:58.465Z,98664.50
2022-11-12T02:23:24.916Z,98661.78
2022-11-12T02:25:51.315Z,98665.84
2022-11-12T02:28:17.789Z,98663.13
2022-11-12T02:30:46.110Z,98666.25
2022-11-12T02:33:12.553Z,98670.00
2022-11-12T02:35:38.969Z,98667.69
2022-11-12T02:38:05.774Z,98663.72
2022-11-12T02:40:32.215Z,98668.72
2022-11-12T02:42:59.160Z,98670.13
2022-11-12T02:45:25.880Z,98670.72
2022-11-12T02:47:52.402Z,98664.75
2022-11-12T02:50:18.879Z,98665.69
2022-11-12T02:52:45.420Z,98657.13
2022-11-12T02:55:12.234Z,98654.53
2022-11-12T02:57:39.184Z,98661.63
2022-11-12T03:00:06.566Z,98665.34
2022-11-12T03:02:33.011Z,98661.91
2022-11-12T03:04:59.401Z,98667.13
2022-11-12T03:07:25.813Z,98659.63
2022-11-12T03:09:52.381Z,98650.84
2022-11-12T03:12:18.841Z,98651.06
2022-11-12T03:14:45.242Z,98650.84
2022-11-12T03:17:11.661Z,98647.53
2022-11-12T03:19:38.057Z,98649.28
2022-11-12T03:22:04.475Z,98646.22
2022-11-12T03:24:30.897Z,98646.81
2022-11-12T03:26:57.352Z,98642.53
2022-11-12T03:29:23.763Z,98645.16
2022-11-12T03:31:50.200Z,98648.13
2022-11-12T03:34:16.577Z,98640.31
2022-11-12T03:36:42.961Z,98638.53
2022-11-12T03:39:09.826Z,98632.50
2022-11-12T03:41:36.217Z,98641.72
2022-11-12T03:44:02.634Z,98640.13
2022-11-12T03:46:29.049Z,98632.84
2022-11-12T03:48:55.482Z,98632.47
2022-11-12T03:51:22.604Z,98630.78
2022-11-12T03:53:49.014Z,98631.00
2022-11-12T03:56:15.635Z,98629.88
2022-11-12T03:58:42.059Z,98622.78
2022-11-12T04:01:08.530Z,98620.25
2022-11-12T04:03:35.006Z,98622.13
2022-11-12T04:06:20.092Z,98625.75
2022-11-12T04:08:46.511Z,98620.72
2022-11-12T04:11:14.032Z,98618.13
2022-11-12T04:13:42.099Z,98616.34
2022-11-12T04:16:31.002Z,98613.84
2022-11-12T04:19:16.650Z,98616.66
2022-11-12T04:21:56.365Z,98610.91
2022-11-12T04:24:42.517Z,98610.81
2022-11-12T04:27:10.089Z,98613.41
2022-11-12T04:29:55.258Z,98605.78
2022-11-12T04:32:21.741Z,98607.66
2022-11-12T04:34:48.229Z,98613.81
2022-11-12T04:37:14.798Z,98607.75
2022-11-12T04:39:41.197Z,98611.19
2022-11-12T04:42:26.982Z,98606.94
2022-11-12T04:45:11.497Z,98618.44
2022-11-12T04:47:38.784Z,98609.25
2022-11-12T04:50:07.325Z,98606.75
2022-11-12T04:52:33.881Z,98603.41
2022-11-12T04:55:00.433Z,98601.53
2022-11-12T04:57:27.011Z,98592.59
2022-11-12T04:59:53.429Z,98603.00
2022-11-12T05:02:20.251Z,98596.22
2022-11-12T05:04:46.816Z,98599.66
2022-11-12T05:07:13.366Z,98599.28
2022-11-12T05:09:40.001Z,98598.53
2022-11-12T05:12:06.688Z,98592.78
2022-11-12T05:14:33.175Z,98595.78
2022-11-12T05:16:59.593Z,98590.84
2022-11-12T05:19:26.043Z,98598.38
2022-11-12T05:22:13.924Z,98590.94
2022-11-12T05:24:48.594Z,98589.72
2022-11-12T05:27:16.242Z,98595.09
2022-11-12T05:29:42.699Z,98596.72
2022-11-12T05:32:09.668Z,98596.34
2022-11-12T05:34:36.230Z,98597.47
2022-11-12T05:37:03.201Z,98597.56
2022-11-12T05:39:29.601Z,98593.19
2022-11-12T05:42:12.522Z,98593.19
2022-11-12T05:44:40.101Z,98585.38
2022-11-12T05:47:06.534Z,98598.50
2022-11-12T05:49:33.015Z,98596.72
2022-11-12T05:51:59.376Z,98590.59
2022-11-12T05:54:25.850Z,98599.41
2022-11-12T05:56:53.397Z,98596.19
2022-11-12T05:59:19.893Z,98597.00
2022-11-12T06:01:46.345Z,98599.50
2022-11-12T06:04:13.604Z,98592.75
2022-11-12T06:06:43.604Z,98586.59
2022-11-12T06:09:10.264Z,98599.50
2022-11-12T06:11:37.031Z,98593.63
2022-11-12T06:14:03.730Z,98589.66
2022-11-12T06:16:30.253Z,98589.00
2022-11-12T06:18:56.721Z,98588.28
2022-11-12T06:21:23.211Z,98589.09
2022-11-12T06:23:51.230Z,98594.03
2022-11-12T06:26:17.717Z,98587.78
2022-11-12T06:28:44.307Z,98591.81
2022-11-12T06:31:10.787Z,98603.88
2022-11-12T06:33:37.216Z,98595.34
2022-11-12T06:36:04.411Z,98603.22
2022-11-12T06:38:31.405Z,98605.06
2022-11-12T06:40:57.846Z,98606.75
2022-11-12T06:43:24.679Z,98604.88
2022-11-12T06:45:51.352Z,98615.38
2022-11-12T06:48:17.770Z,98614.44
2022-11-12T06:50:44.210Z,98613.72
2022-11-12T06:53:10.608Z,98611.00
2022-11-12T06:55:36.995Z,98613.34
2022-11-12T06:58:03.434Z,98614.94
2022-11-12T07:00:29.840Z,98613.44
2022-11-12T07:02:56.303Z,98608.41
2022-11-12T07:05:22.723Z,98611.94
2022-11-12T07:07:49.109Z,98617.13
2022-11-12T07:10:15.653Z,98617.97
2022-11-12T07:12:42.085Z,98620.31
2022-11-12T07:15:08.645Z,98616.59
2022-11-12T07:17:35.051Z,98617.06
2022-11-12T07:20:03.886Z,98618.47
2022-11-12T07:22:32.602Z,98622.16
2022-11-12T07:24:58.976Z,98625.69
2022-11-12T07:27:25.394Z,98625.84
2022-11-12T07:29:51.835Z,98624.16
2022-11-12T07:32:18.253Z,98628.63
2022-11-12T07:34:44.620Z,98633.16
2022-11-12T07:37:11.042Z,98633.84
2022-11-12T07:39:37.500Z,98634.25
2022-11-12T07:42:03.992Z,98634.56
2022-11-12T07:44:30.411Z,98636.28
2022-11-12T07:46:56.801Z,98635.03
2022-11-12T07:49:23.227Z,98634.66
2022-11-12T07:51:49.610Z,98638.41
2022-11-12T07:54:16.073Z,98642.69
2022-11-12T07:56:42.454Z,98643.03
2022-11-12T07:59:08.926Z,98639.09
2022-11-12T08:01:36.282Z,98642.44
2022-11-12T08:04:03.643Z,98640.47
2022-11-12T08:06:30.644Z,98643.59
2022-11-12T08:08:57.628Z,98643.41
2022-11-12T08:11:24.249Z,98636.75
2022-11-12T08:13:50.812Z,98641.00
2022-11-12T08:16:17.305Z,98643.25
2022-11-12T08:18:43.948Z,98645.44
2022-11-12T08:21:11.526Z,98645.56
2022-11-12T08:23:37.964Z,98655.31
2022-11-12T08:26:05.494Z,98651.09
2022-11-12T08:28:32.503Z,98652.50
2022-11-12T08:31:03.223Z,98652.00
2022-11-12T08:33:30.298Z,98644.19
2022-11-12T08:35:56.774Z,98646.25
2022-11-12T08:38:23.267Z,98649.47
2022-11-12T08:40:49.775Z,98646.56
2022-11-12T08:43:16.206Z,98659.09
2022-11-12T08:45:42.674Z,98658.53
2022-11-12T08:48:10.278Z,98662.47
2022-11-12T08:50:37.737Z,98664.19
2022-11-12T08:53:05.469Z,98658.47
2022-11-12T08:55:33.309Z,98655.88
2022-11-12T08:58:02.206Z,98653.84
2022-11-12T09:00:29.122Z,98653.38
2022-11-12T09:02:55.568Z,98659.53
2022-11-12T09:05:22.007Z,98661.31
2022-11-12T09:07:50.295Z,98663.09
2022-11-12T09:10:17.520Z,98665.28
2022-11-12T09:12:43.951Z,98662.28
2022-11-12T09:15:36.277Z,98660.06
2022-11-12T09:17:57.084Z,98652.03
2022-11-12T09:20:23.927Z,98657.88
2022-11-12T09:22:50.469Z,98647.41
2022-11-12T09:25:16.911Z,98658.16
2022-11-12T09:27:48.249Z,98648.63
2022-11-12T09:30:15.224Z,98641.06
2022-11-12T09:32:41.698Z,98645.16
2022-11-12T09:35:08.240Z,98643.00
2022-11-12T09:37:36.994Z,98644.25
2022-11-12T09:40:03.586Z,98642.50
2022-11-12T09:42:30.016Z,98637.91
2022-11-12T09:44:57.794Z,98632.91
2022-11-12T09:47:28.009Z,98641.69
2022-11-12T09:50:06.484Z,98628.47
2022-11-12T09:52:32.906Z,98622.66
2022-11-12T09:55:11.710Z,98620.44
2022-11-12T09:57:38.167Z,98618.66
2022-11-12T10:00:10.802Z,98615.72
2022-11-12T10:02:43.061Z,98612.19
2022-11-12T10:05:09.475Z,98617.25
2022-11-12T10:07:35.879Z,98607.78
2022-11-12T10:10:15.826Z,98611.66
2022-11-12T10:12:50.677Z,98608.41
2022-11-12T10:15:45.072Z,98606.56
2022-11-12T10:18:14.620Z,98597.78
2022-11-12T10:20:41.088Z,98597.69
2022-11-12T10:23:14.397Z,98595.84
2022-11-12T10:25:41.485Z,98593.88
2022-11-12T10:28:21.306Z,98595.16
2022-11-12T10:30:47.681Z,98599.22
2022-11-12T10:33:15.134Z,98592.31
2022-11-12T10:35:41.602Z,98592.63
2022-11-12T10:38:12.271Z,98587.16
2022-11-12T10:40:39.439Z,98591.03
2022-11-12T10:43:06.888Z,98590.63
2022-11-12T10:45:33.298Z,98594.97
2022-11-12T10:48:00.540Z,98588.16
2022-11-12T10:50:33.509Z,98585.31
2022-11-12T10:53:01.459Z,98589.88
2022-11-12T10:55:32.467Z,98588.97
2022-11-12T10:58:11.124Z,98595.44
2022-11-12T11:00:38.404Z,98592.28
2022-11-12T11:03:24.114Z,98590.53
2022-11-12T11:06:20.059Z,98586.00
2022-11-12T11:08:47.392Z,98588.63
2022-11-12T11:11:16.834Z,98582.31
2022-11-12T11:13:43.982Z,98586.19
2022-11-12T11:16:14.829Z,98582.69
2022-11-12T11:18:41.649Z,98582.53
2022-11-12T11:21:18.420Z,98576.44
2022-11-12T11:23:47.480Z,98579.72
2022-11-12T11:26:29.442Z,98573.81
2022-11-12T11:28:58.809Z,98572.31
2022-11-12T11:31:31.373Z,98570.47
2022-11-12T11:33:59.570Z,98561.44
2022-11-12T11:36:28.990Z,98559.56
2022-11-12T11:38:55.425Z,98565.63
2022-11-12T11:41:21.839Z,98558.41
2022-11-12T11:44:00.290Z,98552.34
2022-11-12T11:46:26.726Z,98552.31
2022-11-12T11:48:59.414Z,98546.97
2022-11-12T11:51:44.819Z,98547.34
2022-11-12T11:54:30.051Z,98547.19
2022-11-12T11:56:58.291Z,98550.19
2022-11-12T11:59:37.552Z,98547.88
2022-11-12T12:02:22.624Z,98552.94
2022-11-12T12:04:54.642Z,98549.06
2022-11-12T12:07:40.043Z,98541.44
2022-11-12T12:10:12.841Z,98545.94
2022-11-12T12:12:43.297Z,98540.44
2022-11-12T12:15:24.453Z,98548.25
2022-11-12T12:17:57.780Z,98541.13
2022-11-12T12:20:30.541Z,98537.88
2022-11-12T12:22:58.699Z,98538.16
2022-11-12T12:25:26.217Z,98535.97
2022-11-12T12:28:06.558Z,98537.03
2022-11-12T12:30:34.877Z,98527.63
2022-11-12T12:33:07.348Z,98541.13
2022-11-12T12:35:38.163Z,98533.97
2022-11-12T12:38:12.151Z,98529.91
2022-11-12T12:40:44.169Z,98526.63
2022-11-12T12:43:12.420Z,98522.09
2022-11-12T12:45:42.646Z,98516.72
2022-11-12T12:48:19.738Z,98509.22
2022-11-12T12:50:46.183Z,98517.44
2022-11-12T12:53:16.236Z,98514.16
2022-11-12T12:55:43.553Z,98512.75
2022-11-12T12:58:17.360Z,98516.81
2022-11-12T13:00:46.933Z,98511.84
2022-11-12T13:03:13.419Z,98503.41
2022-11-12T13:05:40.413Z,98502.50
2022-11-12T13:08:10.986Z,98509.59
2022-11-12T13:10:41.415Z,98502.25
2022-11-12T13:13:19.891Z,98496.34
2022-11-12T13:15:46.948Z,98502.09
2022-11-12T13:18:32.214Z,98496.31
2022-11-12T13:21:07.801Z,98501.28
2022-11-12T13:24:04.650Z,98504.25
2022-11-12T13:26:50.674Z,98494.03
2022-11-12T13:29:29.370Z,98493.84
2022-11-12T13:32:14.762Z,98491.06
2022-11-12T13:34:41.152Z,98501.41
2022-11-12T13:37:12.715Z,98496.78
2022-11-12T13:39:39.222Z,98505.88
2022-11-12T13:42:30.420Z,98500.97
2022-11-12T13:44:56.813Z,98499.72
2022-11-12T13:47:24.780Z,98499.25
2022-11-12T13:49:51.163Z,98502.63
2022-11-12T13:52:17.576Z,98495.22
2022-11-12T13:54:44.062Z,98498.34
2022-11-12T13:57:24.366Z,98509.66
2022-11-12T14:00:07.302Z,98512.72
2022-11-12T14:02:36.830Z,98509.34
2022-11-12T14:05:11.620Z,98506.50
2022-11-12T14:07:56.438Z,98509.97
2022-11-12T14:10:45.872Z,98507.16
2022-11-12T14:13:24.763Z,98508.69
2022-11-12T14:15:51.121Z,98508.78
2022-11-12T14:18:20.057Z,98499.41
2022-11-12T14:20:46.478Z,98503.34
2022-11-12T14:23:23.146Z,98498.28
2022-11-12T14:25:52.420Z,98502.66
2022-11-12T14:28:32.022Z,98504.53
2022-11-12T14:30:59.103Z,98505.53
2022-11-12T14:33:29.252Z,98499.25
2022-11-12T14:36:22.052Z,98505.69
2022-11-12T14:38:49.823Z,98492.03
2022-11-12T14:41:20.593Z,98494.94
2022-11-12T14:43:48.154Z,98482.41
2022-11-12T14:46:27.986Z,98489.44
2022-11-12T14:49:01.666Z,98487.03
2022-11-12T14:51:28.317Z,98486.22
2022-11-12T14:53:56.357Z,98491.59
2022-11-12T14:56:42.989Z,98482.50
2022-11-12T14:59:12.896Z,98489.31
2022-11-12T15:04:26.301Z,98481.41
2022-11-12T15:06:56.455Z,98475.78
2022-11-12T15:09:38.716Z,98466.84
2022-11-12T15:12:06.049Z,98478.78
2022-11-12T15:14:32.535Z,98473.97
2022-11-12T15:17:00.634Z,98473.75
2022-11-12T15:19:27.464Z,98469.41
2022-11-12T15:21:58.113Z,98476.34
2022-11-12T15:24:29.363Z,98469.19
2022-11-12T15:26:57.105Z,98471.63
2022-11-12T15:29:28.281Z,98458.00
2022-11-12T15:31:54.650Z,98468.66
2022-11-12T15:34:28.965Z,98471.03
2022-11-12T15:36:55.702Z,98466.34
2022-11-12T15:39:22.209Z,98459.34
2022-11-12T15:41:48.642Z,98463.94
2022-11-12T15:44:15.066Z,98458.84
2022-11-12T15:46:41.462Z,98460.06
2022-11-12T15:49:11.938Z,98456.84
2022-11-12T15:51:38.335Z,98465.81
2022-11-12T15:54:04.863Z,98463.13
2022-11-12T15:56:31.324Z,98467.41
2022-11-12T15:58:57.729Z,98462.88
2022-11-12T16:01:24.160Z,98460.84
2022-11-12T16:03:50.633Z,98453.53
2022-11-12T16:06:17.071Z,98451.09
2022-11-12T16:08:43.489Z,98444.41
2022-11-12T16:11:30.190Z,98447.53
2022-11-12T16:13:56.837Z,98447.84
2022-11-12T16:16:23.214Z,98453.19
2022-11-12T16:18:49.688Z,98443.78
2022-11-12T16:21:20.611Z,98454.63
2022-11-12T16:23:47.488Z,98455.19
2022-11-12T16:26:14.923Z,98448.16
2022-11-12T16:28:41.381Z,98452.34
2022-11-12T16:31:07.777Z,98454.81
2022-11-12T16:33:34.188Z,98453.06
2022-11-12T16:36:00.609Z,98455.25
2022-11-12T16:38:27.063Z,98450.84
2022-11-12T16:40:53.456Z,98457.63
2022-11-12T16:43:19.880Z,98455.56
2022-11-12T16:45:46.260Z,98450.88
2022-11-12T16:48:16.003Z,98457.13
2022-11-12T16:50:42.424Z,98462.22
2022-11-12T16:53:08.862Z,98456.84
2022-11-12T16:55:35.280Z,98461.13
2022-11-12T16:58:01.714Z,98456.16
2022-11-12T17:00:28.191Z,98448.69
2022-11-12T17:02:54.633Z,98458.63
2022-11-12T17:05:21.914Z,98456.41
2022-11-12T17:07:48.623Z,98451.44
2022-11-12T17:10:15.468Z,98450.06
2022-11-12T17:12:41.881Z,98448.69
2022-11-12T17:15:08.765Z,98443.94
2022-11-12T17:17:35.190Z,98454.19
2022-11-12T17:20:01.747Z,98446.72
2022-11-12T17:22:28.161Z,98448.34
2022-11-12T17:24:54.586Z,98450.41
2022-11-12T17:27:21.118Z,98438.66
2022-11-12T17:29:47.522Z,98451.09
2022-11-12T17:32:13.926Z,98443.22
2022-11-12T17:34:40.419Z,98446.09
2022-11-12T17:37:06.850Z,98445.41
2022-11-12T17:39:33.223Z,98444.72
2022-11-12T17:41:59.705Z,98445.25
2022-11-12T17:44:26.120Z,98444.72
2022-11-12T17:46:52.537Z,98446.66
2022-11-12T17:49:19.058Z,98434.75
2022-11-12T17:51:45.481Z,98441.94
2022-11-12T17:54:11.961Z,98442.22
2022-11-12T17:56:38.391Z,98445.09
2022-11-12T17:59:04.875Z,98444.66
2022-11-12T18:01:31.914Z,98439.13
2022-11-12T18:03:58.593Z,98447.28
2022-11-12T18:06:25.915Z,98449.34
2022-11-12T18:08:52.953Z,98445.19
2022-11-12T18:11:19.417Z,98436.63
2022-11-12T18:13:45.814Z,98445.97
2022-11-12T18:16:19.613Z,98443.06
2022-11-12T18:18:46.272Z,98447.28
2022-11-12T18:21:12.706Z,98440.66
2022-11-12T18:23:39.859Z,98442.56
2022-11-12T18:26:06.650Z,98441.88
2022-11-12T18:28:33.142Z,98440.91
2022-11-12T18:31:00.735Z,98439.13
2022-11-12T18:33:27.295Z,98433.19
2022-11-12T18:36:01.211Z,98439.25
2022-11-12T18:38:27.683Z,98433.19
2022-11-12T18:41:04.041Z,98437.88
2022-11-12T18:43:30.560Z,98441.59
2022-11-12T18:45:59.088Z,98433.66
2022-11-12T18:48:25.556Z,98432.25
2022-11-12T18:50:51.961Z,98432.53
2022-11-12T18:53:18.407Z,98429.44
2022-11-12T18:55:44.809Z,98419.47
2022-11-12T18:58:11.207Z,98423.06
2022-11-12T19:00:37.654Z,98415.31
2022-11-12T19:03:04.060Z,98409.50
2022-11-12T19:05:30.480Z,98413.09
2022-11-12T19:07:56.991Z,98410.00
2022-11-12T19:10:23.436Z,98413.09
2022-11-12T19:12:49.830Z,98407.44
2022-11-12T19:15:16.221Z,98410.31
2022-11-12T19:17:42.978Z,98402.44
2022-11-12T19:20:09.607Z,98406.16
2022-11-12T19:22:36.034Z,98407.22
2022-11-12T19:25:02.928Z,98406.78
2022-11-12T19:27:29.519Z,98403.97
2022-11-12T19:30:02.657Z,98398.25
2022-11-12T19:32:29.776Z,98399.34
2022-11-12T19:34:56.188Z,98395.19
2022-11-12T19:37:37.800Z,98394.50
2022-11-12T19:40:05.558Z,98401.69
2022-11-12T19:42:31.977Z,98398.44
2022-11-12T19:44:58.389Z,98405.81
2022-11-12T19:47:24.805Z,98395.84
2022-11-12T19:49:51.180Z,98392.97
2022-11-12T19:52:17.865Z,98390.34
2022-11-12T19:54:44.239Z,98392.25
2022-11-12T19:57:10.770Z,98387.28
2022-11-12T19:59:37.225Z,98388.09
2022-11-12T20:02:03.700Z,98391.44
2022-11-12T20:04:30.094Z,98389.66
2022-11-12T20:06:56.593Z,98394.38
2022-11-12T20:09:23.081Z,98398.91
2022-11-12T20:11:50.804Z,98392.84
2022-11-12T20:14:17.366Z,98386.16
2022-11-12T20:16:43.782Z,98385.22
2022-11-12T20:19:10.163Z,98380.81
2022-11-12T20:21:36.616Z,98379.50
2022-11-12T20:24:03.081Z,98377.97
2022-11-12T20:26:29.519Z,98376.16
2022-11-12T20:28:56.041Z,98377.13
2022-11-12T20:31:22.831Z,98378.66
2022-11-12T20:33:49.946Z,98379.88
2022-11-12T20:36:17.903Z,98376.09
2022-11-12T20:38:44.526Z,98372.06
2022-11-12T20:41:14.862Z,98368.00
2022-11-12T20:43:41.515Z,98369.66
2022-11-12T20:46:07.919Z,98369.66
2022-11-12T20:48:37.747Z,98378.34
2022-11-12T20:51:28.648Z,98378.47
2022-11-12T20:53:59.298Z,98372.16
2022-11-12T20:56:27.181Z,98365.81
2022-11-12T20:58:53.631Z,98376.28
2022-11-12T21:01:20.718Z,98364.41
2022-11-12T21:03:47.381Z,98360.91
2022-11-12T21:06:15.098Z,98368.97
2022-11-12T21:08:42.041Z,98359.94
2022-11-12T21:11:10.424Z,98359.44
2022-11-12T21:13:37.246Z,98349.53
2022-11-12T21:16:03.807Z,98353.50
2022-11-12T21:18:30.770Z,98350.53
2022-11-12T21:21:01.662Z,98339.47
2022-11-12T21:23:28.786Z,98345.28
2022-11-12T21:25:55.157Z,98345.41
2022-11-12T21:28:21.599Z,98336.41
2022-11-12T21:30:48.004Z,98342.97
2022-11-12T21:33:14.510Z,98348.94
2022-11-12T21:35:40.953Z,98338.97
2022-11-12T21:38:07.362Z,98335.66
2022-11-12T21:40:33.770Z,98327.53
2022-11-12T21:43:00.338Z,98330.91
2022-11-12T21:45:26.734Z,98335.56
2022-11-12T21:47:53.392Z,98325.00
2022-11-12T21:50:19.806Z,98324.56
2022-11-12T21:52:46.186Z,98322.88
2022-11-12T21:55:12.669Z,98321.94
2022-11-12T21:57:39.074Z,98317.53
2022-11-12T22:00:34.599Z,98316.69
2022-11-12T22:02:56.118Z,98315.28
2022-11-12T22:05:22.565Z,98312.94
2022-11-12T22:07:49.004Z,98312.22
2022-11-12T22:10:15.528Z,98300.41
2022-11-12T22:12:58.679Z,98304.69
2022-11-12T22:15:28.381Z,98302.91
2022-11-12T22:17:54.818Z,98307.91
2022-11-12T22:20:21.205Z,98297.41
2022-11-12T22:22:47.637Z,98299.91
2022-11-12T22:25:14.068Z,98290.28
2022-11-12T22:27:40.480Z,98294.44
2022-11-12T22:30:07.158Z,98290.13
2022-11-12T22:32:33.557Z,98292.09
2022-11-12T22:35:00.022Z,98282.84
2022-11-12T22:37:26.439Z,98281.44
2022-11-12T22:39:52.849Z,98282.66
2022-11-12T22:42:19.256Z,98277.31
2022-11-12T22:44:45.663Z,98274.63
2022-11-12T22:47:12.096Z,98268.91
2022-11-12T22:49:38.519Z,98271.09
2022-11-12T22:52:05.028Z,98268.22
2022-11-12T22:54:31.476Z,98273.00
2022-11-12T22:56:57.942Z,98271.78
2022-11-12T22:59:24.425Z,98264.19
2022-11-12T23:01:50.953Z,98267.50
2022-11-12T23:04:17.421Z,98271.34
2022-11-12T23:06:43.857Z,98261.84
2022-11-12T23:09:10.450Z,98258.44
2022-11-12T23:11:37.770Z,98253.34
2022-11-12T23:14:04.180Z,98258.69
2022-11-12T23:16:31.288Z,98259.41
2022-11-12T23:18:57.774Z,98254.06
2022-11-12T23:21:25.335Z,98256.78
2022-11-12T23:23:52.074Z,98251.19
2022-11-12T23:26:22.812Z,98251.44
2022-11-12T23:28:49.379Z,98254.31
2022-11-12T23:31:17.341Z,98256.91
2022-11-12T23:33:44.530Z,98253.59
2022-11-12T23:36:11.241Z,98252.19
2022-11-12T23:38:37.683Z,98257.03
2022-11-12T23:41:04.635Z,98250.28
2022-11-12T23:43:31.069Z,98253.34
2022-11-12T23:45:57.608Z,98255.38
2022-11-12T23:48:24.226Z,98246.00
2022-11-12T23:50:51.124Z,98245.06
2022-11-12T23:53:18.072Z,98242.94
2022-11-12T23:55:44.555Z,98241.28
2022-11-12T23:58:10.939Z,98241.97
